Valtellina — ICKF — position and weather

sailwx.info

Track history (hours):
 
Tides and Currents Weather Stations Pressure Air Temp Water Temp Dewpoint Dewpoint Depression Visibility Wind Speed Wind Dir Waves Ship Positions

Valtellina

Last reported at 2014-Sep-01 05:14 UTC. Time now 2014-Sep-01 21:05 UTC.
Position N 32°49' E 012°40'.

Length 184 m; draft 7.5 m.

Type: Ship. MMSI: 247243900.

Date/timePositionNaut miles runAvg speedWind from/ knotsBaromVisibWave heightAir tempDewpointWater temp
2014-Sep-01 05:14N 32°49' E 012°40'0 0.0
2014-Sep-01 04:32N 32°49' E 012°40'0 0.0
2014-Sep-01 03:32N 32°49' E 012°40'0 0.0
2014-Sep-01 02:32N 32°49' E 012°40'0 0.0
2014-Sep-01 01:26N 32°49' E 012°40'0 0.0
2014-Sep-01 00:26N 32°49' E 012°40'0 0.0
2014-Aug-31 23:32N 32°49' E 012°40'0 0.0
2014-Aug-31 22:32N 32°49' E 012°40'0 0.0
2014-Aug-31 21:32N 32°49' E 012°40'0 0.0
2014-Aug-31 20:32N 32°49' E 012°40'0 0.1
2014-Aug-31 19:26N 32°49' E 012°40'2 1.9
2014-Aug-31 18:33N 32°51' E 012°40'12 9.1
2014-Aug-31 17:15N 33°02' E 012°42'7 9.7
2014-Aug-31 16:33N 33°09' E 012°44'10 9.6
2014-Aug-31 15:33N 33°19' E 012°46'10 9.7
2014-Aug-31 14:33N 33°28' E 012°47'11 9.7
2014-Aug-31 13:29N 33°38' E 012°50'48 9.4
2014-Aug-31 08:21N 34°26' E 012°58'99 9.8
2014-Aug-30 22:09N 36°05' E 013°06'5 9.0
2014-Aug-30 21:33N 36°11' E 013°04'9 9.0
2014-Aug-30 20:33N 36°19' E 012°58'11 8.9
2014-Aug-30 19:18N 36°29' E 012°53'7 9.6
2014-Aug-30 18:34N 36°35' E 012°50'11 9.9
2014-Aug-30 17:28N 36°46' E 012°45'9 9.0
2014-Aug-30 16:30N 36°54' E 012°44'  
2014-Aug-22 15:19N 42°48' E 009°54'1512.6
2014-Aug-22 14:09N 43°03' E 009°59'813.1
2014-Aug-22 13:34N 43°10' E 010°03'1313.2
2014-Aug-22 12:33N 43°23' E 010°09'1111.2
2014-Aug-22 11:33N 43°32' E 010°16'2 1.8
2014-Aug-22 10:33N 43°34' E 010°18'0 0.0
2014-Aug-22 09:33N 43°34' E 010°18'0 0.0
2014-Aug-22 08:33N 43°34' E 010°18'0 0.0
2014-Aug-22 07:33N 43°34' E 010°18'0 0.0
2014-Aug-22 06:33N 43°34' E 010°18'0 0.0
2014-Aug-22 05:33N 43°34' E 010°18'  
Track history (hours):
 
Tides and Currents Weather Stations Pressure Air Temp Water Temp Dewpoint Dewpoint Depression Visibility Wind Speed Wind Dir Waves Ship Positions

Valtellina

Last reported at 2014-Sep-01 05:14 UTC. Time now 2014-Sep-01 21:05 UTC.
Position N 32°49' E 012°40'.

Length 184 m; draft 7.5 m.

Type: Ship. MMSI: 247243900.

Date/timePositionNaut miles runAvg speedWind from/ knotsBaromVisibWave heightAir tempDewpointWater temp
2014-Sep-01 05:14N 32°49' E 012°40'0 0.0
2014-Sep-01 04:32N 32°49' E 012°40'0 0.0
2014-Sep-01 03:32N 32°49' E 012°40'0 0.0
2014-Sep-01 02:32N 32°49' E 012°40'0 0.0
2014-Sep-01 01:26N 32°49' E 012°40'0 0.0
2014-Sep-01 00:26N 32°49' E 012°40'0 0.0
2014-Aug-31 23:32N 32°49' E 012°40'0 0.0
2014-Aug-31 22:32N 32°49' E 012°40'0 0.0
2014-Aug-31 21:32N 32°49' E 012°40'0 0.0
2014-Aug-31 20:32N 32°49' E 012°40'0 0.1
2014-Aug-31 19:26N 32°49' E 012°40'2 1.9
2014-Aug-31 18:33N 32°51' E 012°40'12 9.1
2014-Aug-31 17:15N 33°02' E 012°42'7 9.7
2014-Aug-31 16:33N 33°09' E 012°44'10 9.6
2014-Aug-31 15:33N 33°19' E 012°46'10 9.7
2014-Aug-31 14:33N 33°28' E 012°47'11 9.7
2014-Aug-31 13:29N 33°38' E 012°50'48 9.4
2014-Aug-31 08:21N 34°26' E 012°58'99 9.8
2014-Aug-30 22:09N 36°05' E 013°06'5 9.0
2014-Aug-30 21:33N 36°11' E 013°04'9 9.0
2014-Aug-30 20:33N 36°19' E 012°58'11 8.9
2014-Aug-30 19:18N 36°29' E 012°53'7 9.6
2014-Aug-30 18:34N 36°35' E 012°50'11 9.9
2014-Aug-30 17:28N 36°46' E 012°45'9 9.0
2014-Aug-30 16:30N 36°54' E 012°44'  
2014-Aug-22 15:19N 42°48' E 009°54'1512.6
2014-Aug-22 14:09N 43°03' E 009°59'813.1
2014-Aug-22 13:34N 43°10' E 010°03'1313.2
2014-Aug-22 12:33N 43°23' E 010°09'1111.2
2014-Aug-22 11:33N 43°32' E 010°16'2 1.8
2014-Aug-22 10:33N 43°34' E 010°18'0 0.0
2014-Aug-22 09:33N 43°34' E 010°18'0 0.0
2014-Aug-22 08:33N 43°34' E 010°18'0 0.0
2014-Aug-22 07:33N 43°34' E 010°18'0 0.0
2014-Aug-22 06:33N 43°34' E 010°18'0 0.0
2014-Aug-22 05:33N 43°34' E 010°18'  

Dump ship's entire track history